sensor_id;sensor_type;location;lat;lon;timestamp;temperature;humidity
42085;DHT22;27746;52.228;20.890;2023-03-01T00:00:18;-0.70;99.20
42085;DHT22;27746;52.228;20.890;2023-03-01T00:02:45;-0.70;99.20
42085;DHT22;27746;52.228;20.890;2023-03-01T00:05:12;-0.60;99.60
42085;DHT22;27746;52.228;20.890;2023-03-01T00:07:39;-0.70;99.40
42085;DHT22;27746;52.228;20.890;2023-03-01T00:10:09;-0.70;99.60
42085;DHT22;27746;52.228;20.890;2023-03-01T00:12:36;-0.70;99.60
42085;DHT22;27746;52.228;20.890;2023-03-01T00:15:03;-0.70;99.80
42085;DHT22;27746;52.228;20.890;2023-03-01T00:17:31;-0.70;99.90
42085;DHT22;27746;52.228;20.890;2023-03-01T00:19:58;-0.70;99.90
42085;DHT22;27746;52.228;20.890;2023-03-01T00:22:27;-0.60;99.90
42085;DHT22;27746;52.228;20.890;2023-03-01T00:24:54;-0.70;99.90
42085;DHT22;27746;52.228;20.890;2023-03-01T00:27:23;-0.70;99.90
42085;DHT22;27746;52.228;20.890;2023-03-01T00:29:49;-0.60;99.90
42085;DHT22;27746;52.228;20.890;2023-03-01T00:32:16;-0.60;99.90
42085;DHT22;27746;52.228;20.890;2023-03-01T00:34:43;-0.30;99.90
42085;DHT22;27746;52.228;20.890;2023-03-01T00:37:19;-0.70;99.90
42085;DHT22;27746;52.228;20.890;2023-03-01T00:39:46;-0.70;99.90
42085;DHT22;27746;52.228;20.890;2023-03-01T00:42:13;-0.70;99.90
42085;DHT22;27746;52.228;20.890;2023-03-01T00:44:41;-0.70;99.90
42085;DHT22;27746;52.228;20.890;2023-03-01T00:47:09;-0.80;99.90
42085;DHT22;27746;52.228;20.890;2023-03-01T00:49:35;-0.80;99.90
42085;DHT22;27746;52.228;20.890;2023-03-01T00:52:02;-0.80;99.90
42085;DHT22;27746;52.228;20.890;2023-03-01T00:54:29;-0.80;99.90
42085;DHT22;27746;52.228;20.890;2023-03-01T00:56:56;-0.80;99.90
42085;DHT22;27746;52.228;20.890;2023-03-01T00:59:23;-0.80;99.90
42085;DHT22;27746;52.228;20.890;2023-03-01T01:01:52;-0.80;99.90
42085;DHT22;27746;52.228;20.890;2023-03-01T01:04:18;-0.80;99.90
42085;DHT22;27746;52.228;20.890;2023-03-01T01:06:46;-0.80;99.90
42085;DHT22;27746;52.228;20.890;2023-03-01T01:09:14;-0.70;99.90
42085;DHT22;27746;52.228;20.890;2023-03-01T01:11:44;-0.80;99.90
42085;DHT22;27746;52.228;20.890;2023-03-01T01:14:11;-0.80;99.90
42085;DHT22;27746;52.228;20.890;2023-03-01T01:16:38;-0.70;99.90
42085;DHT22;27746;52.228;20.890;2023-03-01T01:19:06;-0.80;99.90
42085;DHT22;27746;52.228;20.890;2023-03-01T01:21:33;-0.80;99.90
42085;DHT22;27746;52.228;20.890;2023-03-01T01:24:02;-0.80;99.90
42085;DHT22;27746;52.228;20.890;2023-03-01T01:26:31;-0.80;99.90
42085;DHT22;27746;52.228;20.890;2023-03-01T01:28:59;-0.80;99.90
42085;DHT22;27746;52.228;20.890;2023-03-01T01:31:26;-0.80;99.90
42085;DHT22;27746;52.228;20.890;2023-03-01T01:33:54;-0.80;99.90
42085;DHT22;27746;52.228;20.890;2023-03-01T01:36:23;-0.80;99.90
42085;DHT22;27746;52.228;20.890;2023-03-01T01:38:50;-0.80;99.90
42085;DHT22;27746;52.228;20.890;2023-03-01T01:41:19;-0.80;99.90
42085;DHT22;27746;52.228;20.890;2023-03-01T01:43:48;-0.80;99.90
42085;DHT22;27746;52.228;20.890;2023-03-01T01:46:21;-0.80;99.90
42085;DHT22;27746;52.228;20.890;2023-03-01T01:48:53;-0.80;99.90
42085;DHT22;27746;52.228;20.890;2023-03-01T01:51:27;-0.90;99.90
42085;DHT22;27746;52.228;20.890;2023-03-01T01:53:59;-0.90;99.90
42085;DHT22;27746;52.228;20.890;2023-03-01T01:56:28;-0.90;99.90
42085;DHT22;27746;52.228;20.890;2023-03-01T01:58:56;-0.90;99.90
42085;DHT22;27746;52.228;20.890;2023-03-01T02:01:23;-0.90;99.90
42085;DHT22;27746;52.228;20.890;2023-03-01T02:03:51;-0.80;99.90
42085;DHT22;27746;52.228;20.890;2023-03-01T02:06:24;-1.00;99.90
42085;DHT22;27746;52.228;20.890;2023-03-01T02:08:55;-1.00;99.90
42085;DHT22;27746;52.228;20.890;2023-03-01T02:11:24;-1.00;99.90
42085;DHT22;27746;52.228;20.890;2023-03-01T02:13:52;-1.00;99.90
42085;DHT22;27746;52.228;20.890;2023-03-01T02:16:20;-1.00;99.90
42085;DHT22;27746;52.228;20.890;2023-03-01T02:18:47;-1.00;99.90
42085;DHT22;27746;52.228;20.890;2023-03-01T02:21:26;-1.00;99.90
42085;DHT22;27746;52.228;20.890;2023-03-01T02:23:58;-1.00;99.90
42085;DHT22;27746;52.228;20.890;2023-03-01T02:26:31;-1.00;99.90
42085;DHT22;27746;52.228;20.890;2023-03-01T02:29:02;-1.00;99.90
42085;DHT22;27746;52.228;20.890;2023-03-01T02:31:31;-1.00;99.90
42085;DHT22;27746;52.228;20.890;2023-03-01T02:34:12;-1.00;99.90
42085;DHT22;27746;52.228;20.890;2023-03-01T02:36:42;-1.00;99.90
42085;DHT22;27746;52.228;20.890;2023-03-01T02:39:13;-1.00;99.90
42085;DHT22;27746;52.228;20.890;2023-03-01T02:41:44;-1.00;99.90
42085;DHT22;27746;52.228;20.890;2023-03-01T02:44:14;-1.10;99.90
42085;DHT22;27746;52.228;20.890;2023-03-01T02:46:42;-1.10;99.90
42085;DHT22;27746;52.228;20.890;2023-03-01T02:49:19;-1.10;99.90
42085;DHT22;27746;52.228;20.890;2023-03-01T02:51:54;-1.10;99.90
42085;DHT22;27746;52.228;20.890;2023-03-01T02:54:29;-0.30;99.90
42085;DHT22;27746;52.228;20.890;2023-03-01T02:56:58;-1.10;99.90
42085;DHT22;27746;52.228;20.890;2023-03-01T02:59:29;-1.20;99.90
42085;DHT22;27746;52.228;20.890;2023-03-01T03:01:57;-1.20;99.90
42085;DHT22;27746;52.228;20.890;2023-03-01T03:04:24;-1.20;99.90
42085;DHT22;27746;52.228;20.890;2023-03-01T03:06:51;-1.00;99.90
42085;DHT22;27746;52.228;20.890;2023-03-01T03:09:18;-1.20;99.90
42085;DHT22;27746;52.228;20.890;2023-03-01T03:11:46;-1.20;99.90
42085;DHT22;27746;52.228;20.890;2023-03-01T03:14:15;-1.20;99.90
42085;DHT22;27746;52.228;20.890;2023-03-01T03:16:45;-1.20;99.90
42085;DHT22;27746;52.228;20.890;2023-03-01T03:19:13;-1.10;99.90
42085;DHT22;27746;52.228;20.890;2023-03-01T03:21:40;-1.20;99.90
42085;DHT22;27746;52.228;20.890;2023-03-01T03:24:07;-1.20;99.90
42085;DHT22;27746;52.228;20.890;2023-03-01T03:26:34;-1.20;99.90
42085;DHT22;27746;52.228;20.890;2023-03-01T03:29:01;-1.20;99.90
42085;DHT22;27746;52.228;20.890;2023-03-01T03:31:29;-1.20;99.90
42085;DHT22;27746;52.228;20.890;2023-03-01T03:33:57;-1.20;99.90
42085;DHT22;27746;52.228;20.890;2023-03-01T03:36:25;-1.20;99.90
42085;DHT22;27746;52.228;20.890;2023-03-01T03:38:52;-1.20;99.90
42085;DHT22;27746;52.228;20.890;2023-03-01T03:41:19;-1.20;99.90
42085;DHT22;27746;52.228;20.890;2023-03-01T03:43:45;-1.20;99.90
42085;DHT22;27746;52.228;20.890;2023-03-01T03:46:13;-1.20;99.90
42085;DHT22;27746;52.228;20.890;2023-03-01T03:48:41;-1.30;99.90
42085;DHT22;27746;52.228;20.890;2023-03-01T03:51:12;-1.20;99.90
42085;DHT22;27746;52.228;20.890;2023-03-01T03:53:39;-1.30;99.90
42085;DHT22;27746;52.228;20.890;2023-03-01T03:56:06;-1.30;99.90
42085;DHT22;27746;52.228;20.890;2023-03-01T03:58:33;-1.30;99.90
42085;DHT22;27746;52.228;20.890;2023-03-01T04:01:01;-1.20;99.90
42085;DHT22;27746;52.228;20.890;2023-03-01T04:03:29;-1.20;99.90
42085;DHT22;27746;52.228;20.890;2023-03-01T04:05:57;-1.30;99.90
42085;DHT22;27746;52.228;20.890;2023-03-01T04:08:26;-1.30;99.90
42085;DHT22;27746;52.228;20.890;2023-03-01T04:10:58;-1.30;99.90
42085;DHT22;27746;52.228;20.890;2023-03-01T04:13:26;-1.30;99.90
42085;DHT22;27746;52.228;20.890;2023-03-01T04:15:54;-1.30;99.90
42085;DHT22;27746;52.228;20.890;2023-03-01T04:18:22;-1.30;99.90
42085;DHT22;27746;52.228;20.890;2023-03-01T04:20:49;-1.30;99.90
42085;DHT22;27746;52.228;20.890;2023-03-01T04:23:21;-1.20;99.90
42085;DHT22;27746;52.228;20.890;2023-03-01T04:25:50;-1.30;99.90
42085;DHT22;27746;52.228;20.890;2023-03-01T04:28:20;-1.30;99.90
42085;DHT22;27746;52.228;20.890;2023-03-01T04:30:47;-1.30;99.90
42085;DHT22;27746;52.228;20.890;2023-03-01T04:33:14;-1.30;99.90
42085;DHT22;27746;52.228;20.890;2023-03-01T04:35:41;-1.30;99.90
42085;DHT22;27746;52.228;20.890;2023-03-01T04:38:08;-1.20;99.90
42085;DHT22;27746;52.228;20.890;2023-03-01T04:40:36;-1.20;99.90
42085;DHT22;27746;52.228;20.890;2023-03-01T04:43:05;-1.30;99.90
42085;DHT22;27746;52.228;20.890;2023-03-01T04:45:33;-1.30;99.90
42085;DHT22;27746;52.228;20.890;2023-03-01T04:48:01;-1.20;99.90
42085;DHT22;27746;52.228;20.890;2023-03-01T04:50:28;-1.30;99.90
42085;DHT22;27746;52.228;20.890;2023-03-01T04:52:55;-1.30;99.90
42085;DHT22;27746;52.228;20.890;2023-03-01T04:55:24;-1.30;99.90
42085;DHT22;27746;52.228;20.890;2023-03-01T04:57:52;-1.30;99.90
42085;DHT22;27746;52.228;20.890;2023-03-01T05:00:22;-1.30;99.90
42085;DHT22;27746;52.228;20.890;2023-03-01T05:02:50;-1.30;99.90
42085;DHT22;27746;52.228;20.890;2023-03-01T05:05:25;-1.30;99.90
42085;DHT22;27746;52.228;20.890;2023-03-01T05:07:53;-1.40;99.90
42085;DHT22;27746;52.228;20.890;2023-03-01T05:10:21;-1.40;99.90
42085;DHT22;27746;52.228;20.890;2023-03-01T05:12:48;-1.40;99.90
42085;DHT22;27746;52.228;20.890;2023-03-01T05:15:15;-1.40;99.90
42085;DHT22;27746;52.228;20.890;2023-03-01T05:17:43;-1.40;99.90
42085;DHT22;27746;52.228;20.890;2023-03-01T05:20:12;-1.40;99.90
42085;DHT22;27746;52.228;20.890;2023-03-01T05:22:38;-1.40;99.90
42085;DHT22;27746;52.228;20.890;2023-03-01T05:25:06;-1.40;99.90
42085;DHT22;27746;52.228;20.890;2023-03-01T05:27:33;-1.40;99.90
42085;DHT22;27746;52.228;20.890;2023-03-01T05:30:01;-1.50;99.90
42085;DHT22;27746;52.228;20.890;2023-03-01T05:32:40;-1.40;99.90
42085;DHT22;27746;52.228;20.890;2023-03-01T05:35:08;-1.40;99.90
42085;DHT22;27746;52.228;20.890;2023-03-01T05:37:39;-1.40;99.90
42085;DHT22;27746;52.228;20.890;2023-03-01T05:40:08;-1.30;99.90
42085;DHT22;27746;52.228;20.890;2023-03-01T05:42:42;-1.30;99.90
42085;DHT22;27746;52.228;20.890;2023-03-01T05:45:09;-1.30;99.90
42085;DHT22;27746;52.228;20.890;2023-03-01T05:47:38;-1.30;99.90
42085;DHT22;27746;52.228;20.890;2023-03-01T05:50:05;-1.30;99.90
42085;DHT22;27746;52.228;20.890;2023-03-01T05:52:34;-1.30;99.90
42085;DHT22;27746;52.228;20.890;2023-03-01T05:55:01;-1.30;99.90
42085;DHT22;27746;52.228;20.890;2023-03-01T05:57:28;-1.20;99.90
42085;DHT22;27746;52.228;20.890;2023-03-01T05:59:55;-1.20;99.90
42085;DHT22;27746;52.228;20.890;2023-03-01T06:02:22;-1.10;99.90
42085;DHT22;27746;52.228;20.890;2023-03-01T06:04:49;-1.10;99.90
42085;DHT22;27746;52.228;20.890;2023-03-01T06:07:16;-1.10;99.90
42085;DHT22;27746;52.228;20.890;2023-03-01T06:09:44;-1.00;99.90
42085;DHT22;27746;52.228;20.890;2023-03-01T06:12:11;-1.00;99.90
42085;DHT22;27746;52.228;20.890;2023-03-01T06:14:38;-0.90;99.90
42085;DHT22;27746;52.228;20.890;2023-03-01T06:17:05;-0.90;99.90
42085;DHT22;27746;52.228;20.890;2023-03-01T06:19:32;-0.80;99.90
42085;DHT22;27746;52.228;20.890;2023-03-01T06:21:59;-0.90;99.90
42085;DHT22;27746;52.228;20.890;2023-03-01T06:24:26;-0.70;99.90
42085;DHT22;27746;52.228;20.890;2023-03-01T06:26:55;-0.70;99.90
42085;DHT22;27746;52.228;20.890;2023-03-01T06:29:22;-0.60;99.90
42085;DHT22;27746;52.228;20.890;2023-03-01T06:31:49;-0.50;99.90
42085;DHT22;27746;52.228;20.890;2023-03-01T06:34:16;-0.40;99.90
42085;DHT22;27746;52.228;20.890;2023-03-01T06:36:43;-0.30;99.90
42085;DHT22;27746;52.228;20.890;2023-03-01T06:39:10;-0.30;99.90
42085;DHT22;27746;52.228;20.890;2023-03-01T06:41:37;-0.20;99.90
42085;DHT22;27746;52.228;20.890;2023-03-01T06:44:05;-0.10;99.90
42085;DHT22;27746;52.228;20.890;2023-03-01T06:46:32;0.00;99.90
42085;DHT22;27746;52.228;20.890;2023-03-01T06:48:59;0.10;99.90
42085;DHT22;27746;52.228;20.890;2023-03-01T06:51:26;0.20;99.90
42085;DHT22;27746;52.228;20.890;2023-03-01T06:53:53;0.30;99.90
42085;DHT22;27746;52.228;20.890;2023-03-01T06:56:20;0.40;99.90
42085;DHT22;27746;52.228;20.890;2023-03-01T06:58:47;0.50;99.90
42085;DHT22;27746;52.228;20.890;2023-03-01T07:01:15;0.60;99.90
42085;DHT22;27746;52.228;20.890;2023-03-01T07:03:42;0.80;99.90
42085;DHT22;27746;52.228;20.890;2023-03-01T07:06:10;0.90;99.90
42085;DHT22;27746;52.228;20.890;2023-03-01T07:08:36;1.00;99.90
42085;DHT22;27746;52.228;20.890;2023-03-01T07:11:04;1.20;99.90
42085;DHT22;27746;52.228;20.890;2023-03-01T07:13:31;1.30;99.90
42085;DHT22;27746;52.228;20.890;2023-03-01T07:15:58;1.40;99.60
42085;DHT22;27746;52.228;20.890;2023-03-01T07:18:26;2.20;99.80
42085;DHT22;27746;52.228;20.890;2023-03-01T07:20:53;1.70;99.40
42085;DHT22;27746;52.228;20.890;2023-03-01T07:23:20;1.80;99.40
42085;DHT22;27746;52.228;20.890;2023-03-01T07:25:52;2.00;98.70
42085;DHT22;27746;52.228;20.890;2023-03-01T07:28:19;2.20;98.60
42085;DHT22;27746;52.228;20.890;2023-03-01T07:30:46;2.30;98.50
42085;DHT22;27746;52.228;20.890;2023-03-01T07:33:13;2.50;97.60
42085;DHT22;27746;52.228;20.890;2023-03-01T07:35:41;2.60;97.30
42085;DHT22;27746;52.228;20.890;2023-03-01T07:38:09;2.80;96.70
42085;DHT22;27746;52.228;20.890;2023-03-01T07:40:36;2.80;96.80
42085;DHT22;27746;52.228;20.890;2023-03-01T07:43:03;2.80;96.30
42085;DHT22;27746;52.228;20.890;2023-03-01T07:45:30;2.90;96.10
42085;DHT22;27746;52.228;20.890;2023-03-01T07:47:57;3.10;96.20
42085;DHT22;27746;52.228;20.890;2023-03-01T07:50:24;3.40;95.90
42085;DHT22;27746;52.228;20.890;2023-03-01T07:52:52;3.40;95.60
42085;DHT22;27746;52.228;20.890;2023-03-01T07:55:19;3.60;95.10
42085;DHT22;27746;52.228;20.890;2023-03-01T07:57:46;3.60;94.80
42085;DHT22;27746;52.228;20.890;2023-03-01T08:00:14;3.80;94.50
42085;DHT22;27746;52.228;20.890;2023-03-01T08:02:43;3.90;94.10
42085;DHT22;27746;52.228;20.890;2023-03-01T08:05:11;4.00;94.10
42085;DHT22;27746;52.228;20.890;2023-03-01T08:07:37;4.20;94.00
42085;DHT22;27746;52.228;20.890;2023-03-01T08:12:33;4.30;93.50
42085;DHT22;27746;52.228;20.890;2023-03-01T08:15:00;4.60;93.20
42085;DHT22;27746;52.228;20.890;2023-03-01T08:17:27;4.70;92.70
42085;DHT22;27746;52.228;20.890;2023-03-01T08:19:54;4.80;92.70
42085;DHT22;27746;52.228;20.890;2023-03-01T08:22:21;4.80;92.30
42085;DHT22;27746;52.228;20.890;2023-03-01T08:24:50;4.90;92.50
42085;DHT22;27746;52.228;20.890;2023-03-01T08:27:19;5.00;92.40
42085;DHT22;27746;52.228;20.890;2023-03-01T08:29:45;5.10;92.10
42085;DHT22;27746;52.228;20.890;2023-03-01T08:32:12;5.20;91.90
42085;DHT22;27746;52.228;20.890;2023-03-01T08:34:39;5.30;91.60
42085;DHT22;27746;52.228;20.890;2023-03-01T08:37:06;5.30;91.70
42085;DHT22;27746;52.228;20.890;2023-03-01T08:39:33;5.40;91.30
42085;DHT22;27746;52.228;20.890;2023-03-01T08:42:01;5.60;91.50
42085;DHT22;27746;52.228;20.890;2023-03-01T08:44:30;5.70;91.20
42085;DHT22;27746;52.228;20.890;2023-03-01T08:46:57;5.80;91.00
42085;DHT22;27746;52.228;20.890;2023-03-01T08:49:28;5.90;90.70
42085;DHT22;27746;52.228;20.890;2023-03-01T08:51:54;6.00;90.40
42085;DHT22;27746;52.228;20.890;2023-03-01T08:54:22;6.10;90.00
42085;DHT22;27746;52.228;20.890;2023-03-01T08:56:49;6.20;90.00
42085;DHT22;27746;52.228;20.890;2023-03-01T08:59:17;6.30;89.60
42085;DHT22;27746;52.228;20.890;2023-03-01T09:01:46;6.50;89.00
42085;DHT22;27746;52.228;20.890;2023-03-01T09:04:14;6.60;88.50
42085;DHT22;27746;52.228;20.890;2023-03-01T09:06:43;6.80;88.30
42085;DHT22;27746;52.228;20.890;2023-03-01T09:09:13;6.90;87.80
42085;DHT22;27746;52.228;20.890;2023-03-01T09:11:41;7.10;87.10
42085;DHT22;27746;52.228;20.890;2023-03-01T09:14:09;7.10;87.20
42085;DHT22;27746;52.228;20.890;2023-03-01T09:16:36;7.10;85.80
42085;DHT22;27746;52.228;20.890;2023-03-01T09:19:05;7.10;85.70
42085;DHT22;27746;52.228;20.890;2023-03-01T09:21:32;7.20;86.10
42085;DHT22;27746;52.228;20.890;2023-03-01T09:23:59;7.40;86.00
42085;DHT22;27746;52.228;20.890;2023-03-01T09:26:26;7.60;85.30
42085;DHT22;27746;52.228;20.890;2023-03-01T09:28:55;7.70;84.80
42085;DHT22;27746;52.228;20.890;2023-03-01T09:31:26;7.90;84.00
42085;DHT22;27746;52.228;20.890;2023-03-01T09:33:53;8.00;83.10
42085;DHT22;27746;52.228;20.890;2023-03-01T09:36:23;8.00;83.10
42085;DHT22;27746;52.228;20.890;2023-03-01T09:38:51;8.00;82.10
42085;DHT22;27746;52.228;20.890;2023-03-01T09:41:31;8.00;81.40
42085;DHT22;27746;52.228;20.890;2023-03-01T09:44:04;8.00;82.40
42085;DHT22;27746;52.228;20.890;2023-03-01T09:46:40;8.00;82.40
42085;DHT22;27746;52.228;20.890;2023-03-01T09:51:39;8.20;81.90
42085;DHT22;27746;52.228;20.890;2023-03-01T09:54:06;8.90;80.50
42085;DHT22;27746;52.228;20.890;2023-03-01T09:56:38;9.30;79.50
42085;DHT22;27746;52.228;20.890;2023-03-01T09:59:16;10.10;77.70
42085;DHT22;27746;52.228;20.890;2023-03-01T10:01:52;11.00;75.50
42085;DHT22;27746;52.228;20.890;2023-03-01T10:04:32;12.60;71.20
42085;DHT22;27746;52.228;20.890;2023-03-01T10:07:17;14.20;66.50
42085;DHT22;27746;52.228;20.890;2023-03-01T10:09:47;15.30;63.10
42085;DHT22;27746;52.228;20.890;2023-03-01T10:12:22;16.00;60.20
42085;DHT22;27746;52.228;20.890;2023-03-01T10:14:55;17.10;57.90
42085;DHT22;27746;52.228;20.890;2023-03-01T10:17:27;18.20;55.30
42085;DHT22;27746;52.228;20.890;2023-03-01T10:20:05;19.10;53.30
42085;DHT22;27746;52.228;20.890;2023-03-01T10:22:38;19.90;51.40
42085;DHT22;27746;52.228;20.890;2023-03-01T10:25:05;20.60;49.70
42085;DHT22;27746;52.228;20.890;2023-03-01T10:27:37;21.30;48.10
42085;DHT22;27746;52.228;20.890;2023-03-01T10:30:13;21.10;47.60
42085;DHT22;27746;52.228;20.890;2023-03-01T10:32:43;21.70;47.10
42085;DHT22;27746;52.228;20.890;2023-03-01T10:35:16;22.00;46.30
42085;DHT22;27746;52.228;20.890;2023-03-01T10:37:57;22.40;45.70
42085;DHT22;27746;52.228;20.890;2023-03-01T10:40:24;23.10;44.70
42085;DHT22;27746;52.228;20.890;2023-03-01T10:42:51;23.60;44.30
42085;DHT22;27746;52.228;20.890;2023-03-01T10:45:32;24.20;43.70
42085;DHT22;27746;52.228;20.890;2023-03-01T10:48:11;24.50;43.00
42085;DHT22;27746;52.228;20.890;2023-03-01T10:50:40;24.90;42.50
42085;DHT22;27746;52.228;20.890;2023-03-01T10:53:21;25.40;42.20
42085;DHT22;27746;52.228;20.890;2023-03-01T10:55:57;25.50;41.70
42085;DHT22;27746;52.228;20.890;2023-03-01T10:58:25;26.20;41.30
42085;DHT22;27746;52.228;20.890;2023-03-01T11:00:53;26.30;41.30
42085;DHT22;27746;52.228;20.890;2023-03-01T11:03:23;26.00;40.90
42085;DHT22;27746;52.228;20.890;2023-03-01T11:06:02;26.60;40.90
42085;DHT22;27746;52.228;20.890;2023-03-01T11:08:34;27.00;41.20
42085;DHT22;27746;52.228;20.890;2023-03-01T11:11:10;27.10;40.00
42085;DHT22;27746;52.228;20.890;2023-03-01T11:13:51;27.50;39.80
42085;DHT22;27746;52.228;20.890;2023-03-01T11:16:25;27.80;40.10
42085;DHT22;27746;52.228;20.890;2023-03-01T11:18:58;28.10;39.60
42085;DHT22;27746;52.228;20.890;2023-03-01T11:21:26;28.60;39.50
42085;DHT22;27746;52.228;20.890;2023-03-01T11:23:58;28.60;39.30
42085;DHT22;27746;52.228;20.890;2023-03-01T11:26:27;28.50;38.90
42085;DHT22;27746;52.228;20.890;2023-03-01T11:28:58;28.10;39.00
42085;DHT22;27746;52.228;20.890;2023-03-01T11:31:28;28.40;38.90
42085;DHT22;27746;52.228;20.890;2023-03-01T11:33:59;27.90;38.70
42085;DHT22;27746;52.228;20.890;2023-03-01T11:36:31;27.50;39.20
42085;DHT22;27746;52.228;20.890;2023-03-01T11:39:05;27.80;39.50
42085;DHT22;27746;52.228;20.890;2023-03-01T11:41:39;26.90;39.60
42085;DHT22;27746;52.228;20.890;2023-03-01T11:44:12;26.10;40.00
42085;DHT22;27746;52.228;20.890;2023-03-01T11:46:50;26.20;40.50
42085;DHT22;27746;52.228;20.890;2023-03-01T11:49:39;26.50;40.50
42085;DHT22;27746;52.228;20.890;2023-03-01T11:52:16;26.60;40.10
42085;DHT22;27746;52.228;20.890;2023-03-01T11:54:53;26.90;40.20
42085;DHT22;27746;52.228;20.890;2023-03-01T11:57:35;27.70;39.90
42085;DHT22;27746;52.228;20.890;2023-03-01T12:00:17;27.90;39.40
42085;DHT22;27746;52.228;20.890;2023-03-01T12:03:23;27.90;39.40
42085;DHT22;27746;52.228;20.890;2023-03-01T12:09:06;28.00;39.40
42085;DHT22;27746;52.228;20.890;2023-03-01T12:11:45;28.60;39.20
42085;DHT22;27746;52.228;20.890;2023-03-01T12:14:40;28.80;38.80
42085;DHT22;27746;52.228;20.890;2023-03-01T12:17:25;28.70;38.90
42085;DHT22;27746;52.228;20.890;2023-03-01T12:20:12;28.90;38.80
42085;DHT22;27746;52.228;20.890;2023-03-01T12:22:53;28.00;37.70
42085;DHT22;27746;52.228;20.890;2023-03-01T12:25:30;29.00;38.10
42085;DHT22;27746;52.228;20.890;2023-03-01T12:31:47;28.80;38.60
42085;DHT22;27746;52.228;20.890;2023-03-01T12:34:33;28.80;38.70
42085;DHT22;27746;52.228;20.890;2023-03-01T12:37:24;28.50;38.50
42085;DHT22;27746;52.228;20.890;2023-03-01T12:40:02;28.50;38.70
42085;DHT22;27746;52.228;20.890;2023-03-01T12:42:37;28.40;38.80
42085;DHT22;27746;52.228;20.890;2023-03-01T12:45:34;28.40;39.30
42085;DHT22;27746;52.228;20.890;2023-03-01T12:48:23;27.00;39.20
42085;DHT22;27746;52.228;20.890;2023-03-01T12:50:53;25.90;40.40
42085;DHT22;27746;52.228;20.890;2023-03-01T12:53:23;25.30;41.50
42085;DHT22;27746;52.228;20.890;2023-03-01T12:55:53;25.30;41.20
42085;DHT22;27746;52.228;20.890;2023-03-01T12:58:25;25.80;41.10
42085;DHT22;27746;52.228;20.890;2023-03-01T13:01:05;25.40;41.50
42085;DHT22;27746;52.228;20.890;2023-03-01T13:03:48;25.30;41.50
42085;DHT22;27746;52.228;20.890;2023-03-01T13:06:23;26.00;41.50
42085;DHT22;27746;52.228;20.890;2023-03-01T13:08:58;26.70;41.10
42085;DHT22;27746;52.228;20.890;2023-03-01T13:11:27;26.70;41.90
42085;DHT22;27746;52.228;20.890;2023-03-01T13:17:30;27.00;40.40
42085;DHT22;27746;52.228;20.890;2023-03-01T13:19:57;26.30;40.90
42085;DHT22;27746;52.228;20.890;2023-03-01T13:22:26;26.00;41.40
42085;DHT22;27746;52.228;20.890;2023-03-01T13:25:01;25.90;41.40
42085;DHT22;27746;52.228;20.890;2023-03-01T13:27:29;25.40;41.50
42085;DHT22;27746;52.228;20.890;2023-03-01T13:29:59;25.30;41.80
42085;DHT22;27746;52.228;20.890;2023-03-01T13:32:34;25.70;42.20
42085;DHT22;27746;52.228;20.890;2023-03-01T13:35:43;25.30;42.00
42085;DHT22;27746;52.228;20.890;2023-03-01T13:38:44;24.80;42.10
42085;DHT22;27746;52.228;20.890;2023-03-01T13:41:11;24.70;42.20
42085;DHT22;27746;52.228;20.890;2023-03-01T13:43:40;23.20;43.50
42085;DHT22;27746;52.228;20.890;2023-03-01T13:46:11;22.30;44.90
42085;DHT22;27746;52.228;20.890;2023-03-01T13:48:40;22.10;45.30
42085;DHT22;27746;52.228;20.890;2023-03-01T13:51:11;22.40;45.70
42085;DHT22;27746;52.228;20.890;2023-03-01T13:53:42;22.50;45.50
42085;DHT22;27746;52.228;20.890;2023-03-01T13:56:12;22.80;45.50
42085;DHT22;27746;52.228;20.890;2023-03-01T13:58:48;23.60;44.90
42085;DHT22;27746;52.228;20.890;2023-03-01T14:01:23;24.20;44.10
42085;DHT22;27746;52.228;20.890;2023-03-01T14:03:52;24.20;43.80
42085;DHT22;27746;52.228;20.890;2023-03-01T14:06:21;24.00;43.50
42085;DHT22;27746;52.228;20.890;2023-03-01T14:09:00;24.10;43.50
42085;DHT22;27746;52.228;20.890;2023-03-01T14:14:44;23.80;43.50
42085;DHT22;27746;52.228;20.890;2023-03-01T14:17:26;23.30;44.30
42085;DHT22;27746;52.228;20.890;2023-03-01T14:20:00;21.80;45.90
42085;DHT22;27746;52.228;20.890;2023-03-01T14:22:33;20.60;47.80
42085;DHT22;27746;52.228;20.890;2023-03-01T14:25:17;19.50;49.40
42085;DHT22;27746;52.228;20.890;2023-03-01T14:27:56;18.10;51.60
42085;DHT22;27746;52.228;20.890;2023-03-01T14:30:25;17.10;53.70
42085;DHT22;27746;52.228;20.890;2023-03-01T14:32:55;16.30;55.00
42085;DHT22;27746;52.228;20.890;2023-03-01T14:35:25;15.70;56.30
42085;DHT22;27746;52.228;20.890;2023-03-01T14:37:52;15.10;57.60
42085;DHT22;27746;52.228;20.890;2023-03-01T14:40:25;14.50;58.80
42085;DHT22;27746;52.228;20.890;2023-03-01T14:42:53;14.00;59.90
42085;DHT22;27746;52.228;20.890;2023-03-01T14:45:26;13.60;61.10
42085;DHT22;27746;52.228;20.890;2023-03-01T14:47:54;13.20;62.40
42085;DHT22;27746;52.228;20.890;2023-03-01T14:50:26;12.80;63.30
42085;DHT22;27746;52.228;20.890;2023-03-01T14:55:27;12.50;64.40
42085;DHT22;27746;52.228;20.890;2023-03-01T14:57:57;12.10;66.10
42085;DHT22;27746;52.228;20.890;2023-03-01T15:00:26;12.00;66.30
42085;DHT22;27746;52.228;20.890;2023-03-01T15:05:27;11.80;66.90
42085;DHT22;27746;52.228;20.890;2023-03-01T15:07:57;11.40;68.00
42085;DHT22;27746;52.228;20.890;2023-03-01T15:10:27;11.10;68.50
42085;DHT22;27746;52.228;20.890;2023-03-01T15:12:55;10.90;69.30
42085;DHT22;27746;52.228;20.890;2023-03-01T15:15:34;10.70;70.20
42085;DHT22;27746;52.228;20.890;2023-03-01T15:18:04;10.50;70.90
42085;DHT22;27746;52.228;20.890;2023-03-01T15:20:34;10.30;71.60
42085;DHT22;27746;52.228;20.890;2023-03-01T15:23:04;10.20;72.10
42085;DHT22;27746;52.228;20.890;2023-03-01T15:25:32;10.00;72.90
42085;DHT22;27746;52.228;20.890;2023-03-01T15:28:01;9.70;73.70
42085;DHT22;27746;52.228;20.890;2023-03-01T15:30:32;9.60;74.10
42085;DHT22;27746;52.228;20.890;2023-03-01T15:33:18;9.50;74.40
42085;DHT22;27746;52.228;20.890;2023-03-01T15:35:48;9.40;74.60
42085;DHT22;27746;52.228;20.890;2023-03-01T15:38:31;9.40;74.90
42085;DHT22;27746;52.228;20.890;2023-03-01T15:41:00;9.30;75.10
42085;DHT22;27746;52.228;20.890;2023-03-01T15:43:39;9.20;75.70
42085;DHT22;27746;52.228;20.890;2023-03-01T15:46:20;9.10;76.10
42085;DHT22;27746;52.228;20.890;2023-03-01T15:48:48;9.00;76.60
42085;DHT22;27746;52.228;20.890;2023-03-01T15:51:22;8.90;76.80
42085;DHT22;27746;52.228;20.890;2023-03-01T15:53:51;8.70;77.30
42085;DHT22;27746;52.228;20.890;2023-03-01T15:56:19;8.60;77.70
42085;DHT22;27746;52.228;20.890;2023-03-01T15:58:46;8.60;78.30
42085;DHT22;27746;52.228;20.890;2023-03-01T16:01:14;8.50;78.60
42085;DHT22;27746;52.228;20.890;2023-03-01T16:03:41;8.40;78.70